Flight Track Log - Related Links

Times and Time Zones

All times are in EDT time to prevent confusion due to time zone crossing. See the LXJ541 flight status page for this flight to view local times or setup timezone preferences in your user account.

Time Position Orientation Groundspeed Altitude Reporting Facility
EDT Latitude Longitude Course Direction KTS MPH feet Rate Location/Type
Wed 12:59:58 PM 32.3667 -64.6833 307° West 258 297 2,000  Level New York Oceanic (ODAPS)
Wed 01:04:13 PM 32.5667 -65.0000 307° West 469 540 18,000  Climbing New York Oceanic (ODAPS)
Wed 01:06:00 PM 32.7182 -65.2421 307° West 258 297 2,000 3,265 Descending FlightAware Transoceanic
Wed 01:06:40 PM 32.5667 -65.0000 307° West 469 540 26,000  Climbing New York Oceanic (ODAPS)
Wed 01:07:00 PM 32.7937 -65.3634 306° West 258 297 2,000  Descending FlightAware Transoceanic
Wed 01:07:15 PM 32.5667 -65.0000 307° West 457 526 26,000  Climbing New York Oceanic (ODAPS)
Wed 01:08:00 PM 32.8692 -65.4849 306° West 258 297 2,000 2,722 Descending FlightAware Transoceanic
Wed 01:08:52 PM 32.5667 -65.0000 307° West 457 526 30,400  Climbing New York Oceanic (ODAPS)
Wed 01:09:00 PM 32.9445 -65.6067 306° West 258 297 2,000 -10,941 Descending FlightAware Transoceanic
Wed 01:10:00 PM 33.0423 -65.7653 306° West 469 540 18,000 24,000 Climbing FlightAware Transoceanic
Wed 01:10:15 PM 32.5667 -65.0000 307° West 457 526 32,000  Climbing New York Oceanic (ODAPS)
Wed 01:11:00 PM 33.1211 -65.8936 306° West 469 540 18,000 -8,000 Descending FlightAware Transoceanic
Wed 01:12:00 PM 33.1997 -66.0222 306° West 469 540 18,000 4,000 Level FlightAware Transoceanic
Wed 01:13:00 PM 33.2446 -66.0958 306° West 457 526 26,000 12,245 Climbing FlightAware Transoceanic
Wed 01:13:38 PM 32.5667 -65.0000 307° West 457 526 38,000  Climbing New York Oceanic (ODAPS)
Wed 01:14:00 PM 33.3194 -66.2186 306° West 457 526 26,000 -5,561 Descending FlightAware Transoceanic
Wed 01:15:00 PM 33.3940 -66.3416 306° West 457 526 30,400 3,000 Climbing FlightAware Transoceanic
Wed 01:16:00 PM 33.4685 -66.4648 306° West 457 526 32,000 800 Climbing FlightAware Transoceanic
Wed 01:17:00 PM 33.5428 -66.5882 306° West 457 526 32,000  Level FlightAware Transoceanic
Wed 01:18:00 PM 33.6171 -66.7119 306° West 457 526 32,000  Level FlightAware Transoceanic
Wed 01:19:00 PM 33.6912 -66.8357 306° West 457 526 32,000 3,000 Level FlightAware Transoceanic
Wed 01:20:00 PM 33.7652 -66.9598 306° West 457 526 38,000 3,000 Climbing FlightAware Transoceanic
Wed 01:21:00 PM 33.8391 -67.0841 306° West 457 526 38,000  Level FlightAware Transoceanic
Wed 01:22:00 PM 33.9128 -67.2085 305° West 457 526 38,000  Level FlightAware Transoceanic
Wed 01:23:00 PM 33.9865 -67.3333 305° West 457 526 38,000  Level FlightAware Transoceanic
Wed 01:24:00 PM 34.0600 -67.4582 305° West 457 526 38,000  Level FlightAware Transoceanic
Wed 01:25:00 PM 34.1333 -67.5833 323° Northwest 457 526 38,000  Level FlightAware Transoceanic
Wed 01:26:00 PM 34.2264 -67.6668 323° Northwest 457 526 38,000  Level FlightAware Transoceanic
Wed 01:27:00 PM 34.3194 -67.7504 323° Northwest 457 526 38,000  Level FlightAware Transoceanic
Wed 01:27:22 PM 34.1333 -67.5833 323° Northwest 435 501 38,000  Level New York Oceanic (ODAPS)
Wed 01:28:00 PM 34.4123 -67.8342 323° Northwest 457 526 38,000  Level FlightAware Transoceanic
Wed 01:29:00 PM 34.5051 -67.9182 323° Northwest 457 526 38,000  Level FlightAware Transoceanic
Wed 01:30:00 PM 34.5979 -68.0024 323° Northwest 457 526 38,000  Level FlightAware Transoceanic
Wed 01:31:00 PM 34.6907 -68.0868 323° Northwest 457 526 38,000  Level FlightAware Transoceanic
Wed 01:32:00 PM 34.7834 -68.1713 323° Northwest 457 526 38,000  Level FlightAware Transoceanic
Wed 01:33:00 PM 34.8955 -68.2740 323° Northwest 435 501 38,000  Level FlightAware Transoceanic
Wed 01:34:00 PM 34.9905 -68.3612 323° Northwest 435 501 38,000  Level FlightAware Transoceanic
Wed 01:35:00 PM 35.0854 -68.4486 323° Northwest 435 501 38,000  Level FlightAware Transoceanic
Wed 01:36:00 PM 35.1803 -68.5363 323° Northwest 435 501 38,000  Level FlightAware Transoceanic
Wed 01:37:00 PM 35.2751 -68.6241 323° Northwest 435 501 38,000  Level FlightAware Transoceanic
Wed 01:38:00 PM 35.3699 -68.7122 323° Northwest 435 501 38,000  Level FlightAware Transoceanic
Wed 01:39:00 PM 35.4646 -68.8004 323° Northwest 435 501 38,000  Level FlightAware Transoceanic
Wed 01:40:00 PM 35.5592 -68.8889 323° Northwest 435 501 38,000  Level FlightAware Transoceanic
Wed 01:41:00 PM 35.6537 -68.9775 323° Northwest 435 501 38,000  Level FlightAware Transoceanic
Wed 01:42:00 PM 35.7482 -69.0664 323° Northwest 435 501 38,000  Level FlightAware Transoceanic
Wed 01:43:00 PM 35.8426 -69.1555 323° Northwest 435 501 38,000  Level FlightAware Transoceanic
Wed 01:44:00 PM 35.9370 -69.2448 322° Northwest 435 501 38,000  Level FlightAware Transoceanic
Wed 01:45:00 PM 36.0313 -69.3343 322° Northwest 435 501 38,000  Level FlightAware Transoceanic
Wed 01:46:00 PM 36.1255 -69.4240 322° Northwest 435 501 38,000  Level FlightAware Transoceanic
Wed 01:47:00 PM 36.2196 -69.5140 322° Northwest 435 501 38,000  Level FlightAware Transoceanic
Wed 01:48:00 PM 36.3137 -69.6041 322° Northwest 435 501 38,000  Level FlightAware Transoceanic
Wed 01:48:30 PM 36.1667 -69.4500 322° Northwest 418 481 38,000  Level New York Oceanic (ODAPS)
Wed 01:49:00 PM 36.4077 -69.6945 322° Northwest 435 501 38,000  Level FlightAware Transoceanic
Wed 01:50:00 PM 36.5017 -69.7851 322° Northwest 435 501 38,000  Level FlightAware Transoceanic
Wed 01:51:00 PM 36.5956 -69.8759 322° Northwest 435 501 38,000  Level FlightAware Transoceanic
Wed 01:52:00 PM 36.6894 -69.9670 322° Northwest 435 501 38,000  Level FlightAware Transoceanic
Wed 01:53:00 PM 36.7831 -70.0582 322° Northwest 435 501 38,000  Level FlightAware Transoceanic
Wed 01:54:00 PM 36.8985 -70.1638 322° Northwest 418 481 38,000  Level FlightAware Transoceanic
Wed 01:55:00 PM 36.9897 -70.2540 322° Northwest 418 481 38,000  Level FlightAware Transoceanic
Wed 01:56:00 PM 37.0808 -70.3444 322° Northwest 418 481 38,000  Level FlightAware Transoceanic
Wed 01:57:00 PM 37.1719 -70.4350 322° Northwest 418 481 38,000  Level FlightAware Transoceanic
Wed 01:58:00 PM 37.2628 -70.5258 321° Northwest 418 481 38,000  Level FlightAware Transoceanic
Wed 01:59:00 PM 37.3537 -70.6169 321° Northwest 418 481 38,000  Level FlightAware Transoceanic
Wed 01:59:00 PM 37.2953 -70.5708 330° Northwest 462 532 38,000  Level New York Center
Wed 01:59:59 PM 37.3997 -70.6831 320° Northwest 457 526 38,000  Level New York Center
Wed 02:00:00 PM 37.4446 -70.7082 321° Northwest 418 481 38,000  Level FlightAware Transoceanic
Wed 02:00:59 PM 37.4664 -70.7850 310° West 439 505 38,000  Level New York Center
Wed 02:01:00 PM 37.5354 -70.7997 321° Northwest 418 481 38,000 -100 Level FlightAware Transoceanic
Wed 02:01:59 PM 37.5456 -70.9031 310° West 434 499 37,900  Descending New York Center
Wed 02:02:00 PM 37.6260 -70.8914 321° Northwest 418 481 38,000 98 Climbing FlightAware Transoceanic
Wed 02:03:00 PM 37.7167 -70.9833 330° Northwest 418 481 38,000  Level FlightAware Transoceanic
Wed 02:03:00 PM 37.6331 -71.0003 319° Northwest 429 494 38,000  Level New York Center
Wed 02:03:58 PM 37.7142 -71.1108 313° West 422 486 38,000  Level New York Center
Wed 02:04:59 PM 37.8075 -71.2269 316° Northwest 422 486 38,000  Level New York Center
Wed 02:06:00 PM 37.8822 -71.3275 313° West 428 493 38,000  Level New York Center
Wed 02:06:58 PM 37.9669 -71.4283 317° Northwest 421 484 38,000  Level New York Center
Wed 02:07:59 PM 38.0497 -71.5347 315° West 421 484 38,000  Level New York Center
Wed 02:08:59 PM 38.1325 -71.6439 314° West 421 484 38,000  Level New York Center
Wed 02:10:00 PM 38.2128 -71.7558 312° West 421 484 38,000  Level New York Center
Wed 02:10:58 PM 38.2933 -71.8600 315° West 416 479 38,000 -51 Level New York Center
Wed 02:11:58 PM 38.3692 -71.9700 311° West 416 479 37,900  Descending New York Center
Wed 02:12:58 PM 38.4494 -72.0694 316° Northwest 416 479 38,000 -50 Climbing New York Center
Wed 02:13:59 PM 38.5275 -72.1717 314° West 405 466 37,800 -1,140 Descending New York Center
Wed 02:14:59 PM 38.6033 -72.2767 313° West 405 466 35,700 -2,083 Descending New York Center
Wed 02:16:00 PM 38.6833 -72.3794 315° West 405 466 33,600 -2,150 Descending New York Center
Wed 02:16:59 PM 38.7611 -72.4853 313° West 405 466 31,400 -2,269 Descending New York Center
Wed 02:17:59 PM 38.8428 -72.5939 314° West 416 479 29,100 -2,281 Descending New York Center
Wed 02:19:00 PM 38.9244 -72.7053 313° West 421 484 26,800 -2,269 Descending New York Center
Wed 02:19:58 PM 39.0039 -72.8144 313° West 421 484 24,600 -2,200 Descending New York Center
Wed 02:21:00 PM 39.0811 -72.9236 312° West 415 478 22,400 -2,066 Descending New York Center
Wed 02:22:00 PM 39.1561 -73.0331 311° West 410 472 20,400 -2,034 Descending New York Center
Wed 02:22:58 PM 39.2272 -73.1239 315° West 385 443 18,400 -1,983 Descending New York Center
Wed 02:23:58 PM 39.2964 -73.2172 314° West 368 423 16,500 -1,835 Descending New York Center
Wed 02:24:59 PM 39.3611 -73.3108 312° West 358 412 14,700 -1,785 Descending New York Center
Wed 02:25:59 PM 39.4278 -73.3992 314° West 347 399 12,900 -1,785 Descending New York Center
Wed 02:27:00 PM 39.4903 -73.4906 312° West 347 399 11,100 -1,714 Descending New York Center
Wed 02:27:58 PM 39.5531 -73.5736 314° West 341 392 9,500 -1,550 Descending New York Center
Wed 02:29:00 PM 39.6114 -73.6594 311° West 329 379 8,000 -1,140 Descending New York Center
Wed 02:29:59 PM 39.6697 -73.7428 312° West 322 371 7,200 -500 Descending New York Center
Wed 02:31:00 PM 39.7322 -73.8239 315° West 311 358 7,000 -99 Descending New York Center
Wed 02:32:00 PM 39.7925 -73.9103 312° West 295 339 7,000 51 Level New York Center
Wed 02:32:58 PM 39.8428 -73.9828 312° West 284 327 7,100 -407 Climbing New York Center
Wed 02:33:58 PM 39.8928 -74.0528 313° West 273 314 6,200 -934 Descending New York Center
Wed 02:35:00 PM 39.9350 -74.1142 312° West 259 298 5,200 -541 Descending New York Center
Wed 02:36:00 PM 39.9811 -74.1789 313° West 254 292 5,100 -102 Descending New York Center
Wed 02:36:58 PM 40.0311 -74.2517 312° West 249 287 5,000 -403 Descending New York Center
Wed 02:37:59 PM 40.0769 -74.3192 312° West 249 287 4,300 -492 Descending New York Center
Wed 02:39:00 PM 40.1250 -74.3867 313° West 249 287 4,000 -125 Descending New York Center
Wed 02:39:35 PM 40.1500 -74.4333 305° West 257 296 4,100 63 Climbing New York TRACON
Wed 02:40:35 PM 40.2000 -74.5000 314° West 257 296 4,100  Level New York TRACON
Wed 02:41:35 PM 40.2500 -74.5500 323° Northwest 251 289 4,100 -50 Level New York TRACON
Wed 02:42:35 PM 40.3167 -74.6167 323° Northwest 246 283 4,000 -151 Descending New York TRACON
Wed 02:43:34 PM 40.3833 -74.6333 349° North 251 289 3,800 -500 Descending New York TRACON
Wed 02:44:35 PM 40.4500 -74.6167 11° North 258 297 3,000 -333 Descending New York TRACON
Wed 02:45:40 PM 40.5000 -74.5667 37° Northeast 261 300 3,100  Climbing New York TRACON
Wed 02:46:41 PM 40.5500 -74.5000 45° Northeast 264 304 3,000 -50 Descending New York TRACON
Wed 02:47:40 PM 40.6000 -74.4167 52° Northeast 267 307 3,000  Level New York TRACON
Wed 02:48:41 PM 40.6500 -74.3500 45° Northeast 266 306 3,000  Level New York TRACON
Wed 02:49:35 PM 40.7000 -74.2833 45° Northeast 260 299 3,000 -737 Level New York TRACON
Wed 02:50:35 PM 40.7500 -74.2167 45° Northeast 242 278 1,600 -700 Descending New York TRACON
Wed 02:51:35 PM 40.7833 -74.1667 49° Northeast 200 230 1,600 -250 Level New York TRACON
Wed 02:52:35 PM 40.8167 -74.1167 49° Northeast 192 221 1,100 -500 Descending New York TRACON
Wed 02:55:00 PM 40.8500 -74.0500 43° Northeast  Level FlightAware Approximate
Wed 03:02:00 PM 40.8501 -74.0608 43° Northeast  Level Estimated

Login

Don't have an account? Register now (free) for customized features, flight alerts, and more!